Time;durP1;ratioP1;P1;durP2;ratioP2;P2;SDS_P1;SDS_P2;PMS_P1;PMS_P2;Temp;Humidity;BMP_temperature;BMP_pressure;BME280_temperature;BME280_humidity;BME280_pressure;Samples;Min_cycle;Max_cycle;Signal;HPM_P1;HPM_P2
2022/10/27 00:00:00;;;;;;;3.98;1.60;;;;;;;10.99;100.00;100281.69;1764163;79;21038;-47
2022/10/27 00:02:26;;;;;;;3.52;1.45;;;;;;;11.00;100.00;100286.14;1770795;79;22862;-48
2022/10/27 00:04:53;;;;;;;4.83;2.08;;;;;;;10.99;100.00;100284.37;1763476;78;21033;-48
2022/10/27 00:07:19;;;;;;;4.90;2.10;;;;;;;10.99;100.00;100287.95;1762341;78;21053;-47
2022/10/27 00:09:46;;;;;;;3.40;1.80;;;;;;;10.99;100.00;100296.03;1776544;78;21289;-47
2022/10/27 00:12:14;;;;;;;4.03;1.87;;;;;;;10.98;100.00;100298.78;1777926;78;21593;-48
2022/10/27 00:14:40;;;;;;;3.45;1.87;;;;;;;10.98;100.00;100298.78;1799300;77;21755;-48
2022/10/27 00:17:07;;;;;;;2.60;2.40;;;;;;;10.96;100.00;100304.27;1767432;79;21062;-47
2022/10/27 00:19:34;;;;;;;3.87;1.70;;;;;;;10.95;100.00;100302.50;1764002;79;21013;-48
2022/10/27 00:22:01;;;;;;;2.65;1.77;;;;;;;10.97;100.00;100307.33;1763078;78;21037;-49
2022/10/27 00:24:28;;;;;;;8.08;2.70;;;;;;;10.96;100.00;100303.38;1790653;77;21084;-47
2022/10/27 00:26:54;;;;;;;2.47;1.60;;;;;;;10.98;100.00;100310.91;1792649;78;22832;-48
2022/10/27 00:29:20;;;;;;;4.80;1.37;;;;;;;10.98;100.00;100308.21;1790430;77;21041;-48
2022/10/27 00:31:47;;;;;;;4.30;1.70;;;;;;;10.99;100.00;100308.16;1772310;78;21635;-48
2022/10/27 00:34:13;;;;;;;8.40;2.50;;;;;;;11.00;100.00;100315.77;1775735;78;21024;-47
2022/10/27 00:36:41;;;;;;;8.13;2.05;;;;;;;10.96;100.00;100310.12;1774786;78;21122;-47
2022/10/27 00:39:08;;;;;;;3.60;1.75;;;;;;;11.00;100.00;100318.47;1780280;78;23225;-48
2022/10/27 00:41:39;;;;;;;4.45;2.05;;;;;;;11.03;100.00;100318.81;1777804;78;21778;-47
2022/10/27 00:44:30;;;;;;;6.78;2.20;;;;;;;11.05;100.00;100321.87;1774547;78;21056;-48
2022/10/27 00:47:07;;;;;;;4.75;1.37;;;;;;;11.04;100.00;100321.92;1770225;79;21502;-50
2022/10/27 00:49:49;;;;;;;5.20;1.82;;;;;;;11.04;100.00;100321.92;1777184;78;21322;-49
2022/10/27 00:52:29;;;;;;;4.60;1.80;;;;;;;11.04;100.00;100326.84;1775876;78;21838;-47
2022/10/27 00:54:59;;;;;;;6.60;2.15;;;;;;;11.08;100.00;100328.92;1793541;77;21696;-48
2022/10/27 00:57:26;;;;;;;4.12;2.60;;;;;;;11.08;100.00;100328.92;1792604;78;21098;-49
2022/10/27 00:59:52;;;;;;;4.10;1.90;;;;;;;11.10;100.00;100330.62;1792965;77;21031;-48
2022/10/27 01:02:19;;;;;;;7.30;2.27;;;;;;;11.11;100.00;100335.08;1790087;77;21586;-48
2022/10/27 01:04:52;;;;;;;5.85;1.40;;;;;;;11.11;100.00;100337.77;1793634;77;21521;-49
2022/10/27 01:07:18;;;;;;;4.53;1.85;;;;;;;11.12;100.00;100330.56;1777245;78;21538;-51
2022/10/27 01:09:45;;;;;;;5.20;2.20;;;;;;;11.14;100.00;100334.96;1774548;78;21038;-49
2022/10/27 01:12:12;;;;;;;4.72;1.85;;;;;;;11.16;100.00;100338.91;1779339;78;21012;-48
2022/10/27 01:14:38;;;;;;;5.58;1.98;;;;;;;11.17;100.00;100335.28;1775708;78;22217;-46
2022/10/27 01:17:14;;;;;;;4.58;2.27;;;;;;;11.17;100.00;100344.70;1775997;78;21879;-47
2022/10/27 01:20:29;;;;;;;5.42;2.10;;;;;;;11.14;100.00;100337.66;1778329;78;21087;-47
2022/10/27 01:23:08;;;;;;;4.87;1.87;;;;;;;11.14;100.00;100344.39;1785740;78;21064;-46
2022/10/27 01:26:07;;;;;;;3.00;1.70;;;;;;;11.14;100.00;100348.43;1766086;79;21105;-50
2022/10/27 01:29:17;;;;;;;6.97;1.52;;;;;;;11.10;100.00;100349.48;1775823;78;21086;-48
2022/10/27 01:32:07;;;;;;;4.83;1.75;;;;;;;11.10;100.00;100349.48;1726789;79;22621;-47
2022/10/27 01:34:39;;;;;;;3.65;2.02;;;;;;;11.07;100.00;100352.29;1768100;79;20964;-47
2022/10/27 01:37:40;;;;;;;6.10;1.62;;;;;;;11.05;100.00;100348.80;1752114;79;21120;-49
2022/10/27 01:40:22;;;;;;;1.77;1.32;;;;;;;11.07;100.00;100350.06;1797085;77;21038;-49
2022/10/27 01:42:54;;;;;;;7.53;1.92;;;;;;;11.02;100.00;100351.61;1789341;77;21324;-49
2022/10/27 01:45:26;;;;;;;2.60;1.60;;;;;;;11.02;100.00;100351.61;1775790;78;21829;-49
2022/10/27 01:47:54;;;;;;;3.45;2.17;;;;;;;11.02;100.00;100358.34;1779011;78;21521;-49
2022/10/27 01:50:28;;;;;;;1.65;1.55;;;;;;;10.99;100.00;100364.73;1747300;79;22009;-49
2022/10/27 01:52:55;;;;;;;5.12;1.77;;;;;;;10.95;100.00;100365.80;1773556;79;21022;-49
2022/10/27 01:55:39;;;;;;;3.55;1.37;;;;;;;10.91;100.00;100364.16;1775618;78;21048;-50
2022/10/27 01:58:38;;;;;;;1.90;1.20;;;;;;;10.92;100.00;100365.03;1776552;79;21826;-48
2022/10/27 02:01:52;;;;;;;6.87;1.45;;;;;;;10.90;100.00;100373.64;1773100;78;21557;-48
2022/10/27 02:04:51;;;;;;;1.82;1.35;;;;;;;10.91;100.00;100382.13;1775571;78;21643;-49
2022/10/27 02:07:38;;;;;;;2.35;1.47;;;;;;;10.89;100.00;100381.30;1781602;78;22341;-57
2022/10/27 02:10:17;;;;;;;3.00;1.40;;;;;;;10.86;100.00;100377.41;1775141;78;21537;-50
2022/10/27 02:12:44;;;;;;;1.90;1.75;;;;;;;10.87;100.00;100386.78;1776722;78;21819;-50
2022/10/27 02:15:30;;;;;;;3.67;1.92;;;;;;;10.86;100.00;100385.48;1778638;78;21024;-50
2022/10/27 02:18:04;;;;;;;3.20;1.30;;;;;;;10.86;100.00;100385.48;1796124;77;21021;-50
2022/10/27 02:20:38;;;;;;;1.65;1.40;;;;;;;10.88;100.00;100391.23;1768916;79;21447;-50
2022/10/27 02:23:08;;;;;;;1.50;1.10;;;;;;;10.92;100.00;100395.55;1764371;79;21128;-49
2022/10/27 02:25:43;;;;;;;4.10;1.37;;;;;;;10.92;100.00;100395.55;1767272;78;21835;-50
2022/10/27 02:28:09;;;;;;;3.62;1.05;;;;;;;10.89;100.00;100392.08;1762217;79;21108;-50
2022/10/27 02:30:36;;;;;;;3.83;1.50;;;;;;;10.90;100.00;100396.53;1794361;77;21058;-50
2022/10/27 02:33:03;;;;;;;7.87;1.95;;;;;;;10.92;100.00;100396.02;1772825;78;21050;-50
2022/10/27 02:35:29;;;;;;;4.95;1.50;;;;;;;10.91;100.00;100397.83;1797540;77;21084;-49
2022/10/27 02:37:57;;;;;;;2.35;1.47;;;;;;;10.92;100.00;100399.58;1772106;78;21822;-50
2022/10/27 02:40:24;;;;;;;5.17;1.80;;;;;;;10.92;100.00;100396.89;1773706;78;21013;-49
2022/10/27 02:42:51;;;;;;;4.30;1.72;;;;;;;10.90;100.00;100392.02;1775020;78;21033;-50
2022/10/27 02:45:19;;;;;;;3.52;1.20;;;;;;;10.93;100.00;100393.73;1777943;78;21002;-50
2022/10/27 02:47:46;;;;;;;1.98;1.22;;;;;;;10.92;100.00;100400.93;1777834;78;21052;-49
2022/10/27 02:50:12;;;;;;;3.72;1.25;;;;;;;10.92;100.00;100402.74;1778164;78;21832;-50
2022/10/27 02:52:44;;;;;;;6.37;1.72;;;;;;;10.92;100.00;100407.66;1775478;78;21036;-49
2022/10/27 02:55:10;;;;;;;5.72;1.70;;;;;;;10.91;100.00;100401.86;1782269;78;21618;-50
2022/10/27 02:57:37;;;;;;;5.45;1.50;;;;;;;10.91;100.00;100401.86;1778182;78;21052;-50
2022/10/27 03:00:05;;;;;;;2.22;1.45;;;;;;;10.95;100.00;100406.67;1779479;78;21040;-50
2022/10/27 03:02:32;;;;;;;3.15;1.35;;;;;;;10.97;100.00;100400.27;1780978;78;22495;-51
2022/10/27 03:04:58;;;;;;;2.30;1.40;;;;;;;10.99;100.00;100403.78;1775158;78;21048;-50
2022/10/27 03:07:25;;;;;;;5.30;1.40;;;;;;;11.03;100.00;100405.90;1775694;78;21086;-49
2022/10/27 03:09:51;;;;;;;5.50;1.37;;;;;;;11.08;100.00;100403.01;1783614;78;21040;-49
2022/10/27 03:12:18;;;;;;;3.27;1.27;;;;;;;11.10;100.00;100408.75;1773161;79;21039;-50
2022/10/27 03:14:44;;;;;;;5.67;1.42;;;;;;;11.10;100.00;100412.80;1774963;79;21897;-50
2022/10/27 03:18:24;;;;;;;4.23;2.40;;;;;;;11.12;100.00;100404.66;1791321;77;22505;-48
2022/10/27 03:20:51;;;;;;;4.53;1.55;;;;;;;11.14;100.00;100421.18;1769838;78;21078;-48
2022/10/27 03:23:17;;;;;;;6.65;2.12;;;;;;;11.16;100.00;100423.78;1772777;78;21949;-48
2022/10/27 03:25:44;;;;;;;6.30;1.55;;;;;;;11.15;100.00;100421.56;1770179;79;21044;-48
2022/10/27 03:28:11;;;;;;;1.72;1.32;;;;;;;11.15;100.00;100421.56;1772466;79;21075;-48
2022/10/27 03:30:39;;;;;;;5.90;2.60;;;;;;;11.14;100.00;100423.87;1772948;79;21080;-49
2022/10/27 03:33:05;;;;;;;5.92;1.87;;;;;;;11.13;100.00;100424.81;1775528;79;21108;-49
2022/10/27 03:35:32;;;;;;;4.60;1.90;;;;;;;11.12;100.00;100427.09;1771573;79;22675;-48
2022/10/27 03:38:00;;;;;;;4.65;1.82;;;;;;;11.12;100.00;100429.78;1774315;78;22183;-47
2022/10/27 03:40:27;;;;;;;2.42;1.60;;;;;;;11.12;100.00;100429.78;1771147;79;21048;-48
2022/10/27 03:42:57;;;;;;;8.30;2.08;;;;;;;11.12;100.00;100431.60;1772488;79;21033;-48
2022/10/27 03:45:22;;;;;;;4.15;1.95;;;;;;;11.13;100.00;100433.36;1774163;79;21103;-49
2022/10/27 03:47:49;;;;;;;4.17;2.35;;;;;;;11.12;100.00;100440.56;1770256;78;22685;-48
2022/10/27 03:50:15;;;;;;;6.12;2.08;;;;;;;11.13;100.00;100438.28;1739189;80;21061;-49
2022/10/27 03:52:42;;;;;;;4.53;1.67;;;;;;;11.12;100.00;100438.34;1764845;79;21048;-49
2022/10/27 03:55:08;;;;;;;6.50;2.70;;;;;;;11.12;100.00;100435.17;1766904;79;21115;-49
2022/10/27 03:57:35;;;;;;;4.53;1.80;;;;;;;11.14;100.00;100438.69;1763972;78;21045;-48
2022/10/27 04:00:01;;;;;;;2.98;2.10;;;;;;;11.14;100.00;100438.69;1750872;80;21940;-48
2022/10/27 04:02:30;;;;;;;4.00;2.30;;;;;;;11.16;100.00;100442.65;1748342;80;21077;-48
2022/10/27 04:04:56;;;;;;;6.53;2.27;;;;;;;11.14;100.00;100446.77;1750300;80;21045;-48
2022/10/27 04:07:23;;;;;;;5.10;2.40;;;;;;;11.13;100.00;100448.18;1749827;80;22056;-48
2022/10/27 04:09:49;;;;;;;2.77;2.12;;;;;;;11.12;100.00;100449.11;1751354;80;21049;-48
2022/10/27 04:12:15;;;;;;;2.45;1.47;;;;;;;11.13;100.00;100447.71;1745514;80;21787;-48
2022/10/27 04:14:43;;;;;;;4.60;2.08;;;;;;;11.12;100.00;100447.30;1750343;80;21037;-48
2022/10/27 04:17:10;;;;;;;2.58;2.35;;;;;;;11.13;100.00;100451.75;1736413;80;21054;-48
2022/10/27 04:19:37;;;;;;;1.70;1.60;;;;;;;11.13;100.00;100451.75;1704771;82;21075;-48
2022/10/27 04:22:03;;;;;;;2.83;1.85;;;;;;;11.11;100.00;100446.00;1705151;82;21684;-48
2022/10/27 04:24:30;;;;;;;7.42;2.95;;;;;;;11.11;100.00;100446.00;1707014;82;21823;-48
2022/10/27 04:26:56;;;;;;;5.67;1.45;;;;;;;11.14;100.00;100454.86;1707871;82;21363;-48
2022/10/27 04:29:22;;;;;;;6.25;1.50;;;;;;;11.14;100.00;100454.86;1707032;82;21078;-48
2022/10/27 04:31:49;;;;;;;4.95;1.80;;;;;;;11.16;100.00;100462.86;1705385;82;21057;-48
2022/10/27 04:34:16;;;;;;;6.40;1.92;;;;;;;11.16;100.00;100461.51;1702109;82;21062;-48
2022/10/27 04:36:42;;;;;;;2.50;2.08;;;;;;;11.16;100.00;100461.51;1705749;82;23582;-47
2022/10/27 04:39:12;;;;;;;1.92;1.75;;;;;;;11.13;100.00;100456.27;1712439;82;21547;-48
2022/10/27 04:41:37;;;;;;;7.05;1.60;;;;;;;11.13;100.00;100463.87;1703426;82;21074;-49
2022/10/27 04:44:03;;;;;;;3.90;1.50;;;;;;;11.14;100.00;100464.76;1705372;82;21117;-49
2022/10/27 04:46:30;;;;;;;4.60;2.10;;;;;;;11.14;100.00;100464.76;1707096;82;21070;-49
2022/10/27 04:48:56;;;;;;;2.77;1.45;;;;;;;11.13;100.00;100467.04;1706926;82;21928;-50
2022/10/27 04:51:23;;;;;;;4.90;1.85;;;;;;;11.15;100.00;100475.91;1704146;82;21033;-49
2022/10/27 04:53:49;;;;;;;6.25;2.10;;;;;;;11.15;100.00;100475.91;1705328;82;21077;-48
2022/10/27 04:56:17;;;;;;;4.40;1.95;;;;;;;11.17;100.00;100477.63;1704670;82;21081;-50
2022/10/27 04:58:44;;;;;;;7.92;1.72;;;;;;;11.17;100.00;100487.52;1706678;82;21033;-50
2022/10/27 05:01:12;;;;;;;2.10;1.17;;;;;;;11.15;100.00;100484.00;1708816;82;21813;-49
2022/10/27 05:03:39;;;;;;;2.65;1.77;;;;;;;11.14;100.00;100491.70;1704088;82;21066;-50
2022/10/27 05:06:06;;;;;;;7.42;1.92;;;;;;;11.16;100.00;100497.42;1705377;82;21082;-50
2022/10/27 05:08:33;;;;;;;2.40;1.55;;;;;;;11.14;100.00;100495.74;1708777;82;21076;-50
2022/10/27 05:11:01;;;;;;;3.95;2.15;;;;;;;11.14;100.00;100495.74;1706335;82;21089;-49
2022/10/27 05:13:27;;;;;;;5.85;1.85;;;;;;;11.14;100.00;100500.66;1707068;82;21769;-50
2022/10/27 05:16:01;;;;;;;5.25;1.37;;;;;;;11.11;100.00;100494.50;1679738;82;21789;-49
2022/10/27 05:18:28;;;;;;;4.87;1.70;;;;;;;11.11;100.00;100494.50;1727051;80;21052;-49
2022/10/27 05:20:56;;;;;;;3.98;1.80;;;;;;;11.05;100.00;100497.45;1736119;80;21125;-49
2022/10/27 05:23:22;;;;;;;7.10;1.65;;;;;;;11.03;100.00;100499.31;1736843;80;21125;-49
2022/10/27 05:25:53;;;;;;;4.45;1.27;;;;;;;11.00;100.00;100499.83;1733628;81;21834;-49
2022/10/27 05:28:19;;;;;;;5.35;2.05;;;;;;;11.00;100.00;100499.83;1737228;81;21038;-49
2022/10/27 05:30:46;;;;;;;5.17;1.17;;;;;;;10.99;100.00;100500.77;1734872;80;21063;-49
2022/10/27 05:33:12;;;;;;;8.28;2.02;;;;;;;10.99;100.00;100500.77;1735857;80;21054;-50
2022/10/27 05:35:39;;;;;;;6.00;1.35;;;;;;;10.98;100.00;100496.77;1737833;81;21162;-49
2022/10/27 05:38:05;;;;;;;2.40;1.32;;;;;;;11.00;100.00;100508.37;1733450;81;21842;-49
2022/10/27 05:40:35;;;;;;;2.22;1.20;;;;;;;10.98;100.00;100512.47;1734035;80;21105;-49
2022/10/27 05:45:22;;;;;;;3.50;1.50;;;;;;;11.00;100.00;100502.98;1788065;78;22690;-49
2022/10/27 05:47:57;;;;;;;1.82;1.20;;;;;;;11.00;100.00;100517.80;1711085;82;21061;-49
2022/10/27 05:50:24;;;;;;;2.47;1.47;;;;;;;11.00;100.00;100517.80;1731936;80;21988;-50
2022/10/27 05:52:50;;;;;;;5.28;1.65;;;;;;;11.01;100.00;100520.91;1734792;81;21510;-49
2022/10/27 05:55:18;;;;;;;1.70;1.25;;;;;;;11.02;100.00;100529.88;1736687;80;21558;-49
2022/10/27 05:57:54;;;;;;;3.08;1.50;;;;;;;11.01;100.00;100522.27;1729958;80;21042;-49
2022/10/27 06:00:22;;;;;;;1.60;1.45;;;;;;;11.00;100.00;100521.38;1710184;81;21061;-47
2022/10/27 06:02:49;;;;;;;9.28;1.87;;;;;;;11.03;100.00;100528.94;1708249;81;21846;-47
2022/10/27 06:05:16;;;;;;;2.60;1.30;;;;;;;11.03;100.00;100528.94;1710477;81;21108;-48
2022/10/27 06:07:43;;;;;;;3.50;1.30;;;;;;;11.01;100.00;100533.03;1708685;81;21096;-48
2022/10/27 06:10:10;;;;;;;1.92;1.60;;;;;;;11.00;100.00;100538.01;1711919;81;21691;-47
2022/10/27 06:12:36;;;;;;;7.90;1.85;;;;;;;10.99;100.00;100542.52;1710432;81;21069;-48
2022/10/27 06:15:03;;;;;;;1.80;1.40;;;;;;;10.99;100.00;100542.52;1708324;81;21853;-48
2022/10/27 06:17:31;;;;;;;2.52;1.22;;;;;;;10.99;100.00;100541.17;1713251;80;21081;-47
2022/10/27 06:19:58;;;;;;;5.15;1.57;;;;;;;10.99;100.00;100547.91;1716222;81;21060;-49
2022/10/27 06:22:24;;;;;;;1.32;1.22;;;;;;;10.99;100.00;100551.95;1713546;80;21530;-49
2022/10/27 06:24:51;;;;;;;4.50;1.10;;;;;;;11.02;100.00;100557.70;1716116;81;21119;-49
2022/10/27 06:27:17;;;;;;;2.22;1.62;;;;;;;11.03;100.00;100559.45;1713111;80;21757;-49
2022/10/27 06:29:43;;;;;;;2.10;1.20;;;;;;;11.05;100.00;100567.48;1709728;81;21135;-49
2022/10/27 06:32:11;;;;;;;3.45;1.22;;;;;;;11.05;100.00;100567.48;1708928;81;21461;-49
2022/10/27 06:34:37;;;;;;;2.17;1.25;;;;;;;11.05;100.00;100565.67;1710095;81;21041;-49
2022/10/27 06:37:04;;;;;;;2.98;1.62;;;;;;;11.06;100.00;100562.02;1710201;80;21135;-49
2022/10/27 06:39:32;;;;;;;4.03;1.45;;;;;;;11.07;100.00;100562.44;1713969;81;21827;-49
2022/10/27 06:41:59;;;;;;;2.15;1.47;;;;;;;11.07;100.00;100562.44;1712892;81;21057;-50
2022/10/27 06:44:25;;;;;;;3.72;1.47;;;;;;;11.12;100.00;100570.36;1698086;81;21591;-49
2022/10/27 06:46:52;;;;;;;3.95;1.87;;;;;;;11.16;100.00;100569.29;1686151;82;21658;-49
2022/10/27 06:49:18;;;;;;;5.62;2.02;;;;;;;11.16;100.00;100569.29;1711368;82;21210;-48
2022/10/27 06:51:45;;;;;;;3.70;1.20;;;;;;;11.17;100.00;100580.48;1699279;82;21789;-49
2022/10/27 06:54:12;;;;;;;5.90;1.47;;;;;;;11.17;100.00;100579.13;1703550;82;21643;-49
2022/10/27 06:56:38;;;;;;;2.45;1.17;;;;;;;11.19;100.00;100583.54;1671751;83;21077;-49
2022/10/27 06:59:04;;;;;;;3.40;1.52;;;;;;;11.21;100.00;100584.38;1703443;82;21065;-50
2022/10/27 07:01:31;;;;;;;2.70;1.32;;;;;;;11.23;100.00;100575.73;1705816;82;21639;-49
2022/10/27 07:03:57;;;;;;;1.98;1.12;;;;;;;11.26;100.00;100582.37;1701690;82;23041;-49
2022/10/27 07:06:24;;;;;;;3.65;1.30;;;;;;;11.29;100.00;100581.38;1700357;82;21566;-49
2022/10/27 07:08:51;;;;;;;4.53;1.32;;;;;;;11.29;100.00;100587.66;1704915;82;21374;-49
2022/10/27 07:11:18;;;;;;;2.60;1.42;;;;;;;11.29;100.00;100594.39;1701112;81;21737;-49
2022/10/27 07:13:45;;;;;;;4.53;1.60;;;;;;;11.27;100.00;100590.87;1701286;82;22143;-49
2022/10/27 07:16:12;;;;;;;6.35;1.77;;;;;;;11.31;100.00;100588.95;1701924;82;21886;-49
2022/10/27 07:18:39;;;;;;;5.15;1.62;;;;;;;11.30;100.00;100591.23;1704203;82;21884;-49
2022/10/27 07:21:05;;;;;;;2.67;1.47;;;;;;;11.29;100.00;100601.12;1709286;82;21069;-48
2022/10/27 07:23:32;;;;;;;3.83;1.65;;;;;;;11.27;100.00;100593.56;1700207;82;21471;-49
2022/10/27 07:25:58;;;;;;;4.03;1.75;;;;;;;11.28;100.00;100593.98;1652886;85;21061;-49
2022/10/27 07:28:24;;;;;;;6.47;1.60;;;;;;;11.31;100.00;100597.03;1711872;82;21724;-49
2022/10/27 07:30:53;;;;;;;4.87;1.17;;;;;;;11.35;100.00;100601.36;1697950;82;21061;-49
2022/10/27 07:33:20;;;;;;;1.70;1.37;;;;;;;11.35;100.00;100597.31;1700828;82;21110;-49
2022/10/27 07:35:50;;;;;;;6.70;1.72;;;;;;;11.37;100.00;100600.84;1701497;82;21117;-50
2022/10/27 07:38:18;;;;;;;4.25;1.92;;;;;;;11.38;100.00;100600.78;1702449;82;21660;-49
2022/10/27 07:40:45;;;;;;;4.28;1.80;;;;;;;11.41;100.00;100601.58;1701501;82;21830;-49
2022/10/27 07:43:11;;;;;;;4.42;1.05;;;;;;;11.44;100.00;100612.26;1707166;82;21061;-50
2022/10/27 07:45:39;;;;;;;4.35;2.00;;;;;;;11.47;100.00;100610.80;1720693;82;21412;-49
2022/10/27 07:48:12;;;;;;;2.52;1.67;;;;;;;11.53;100.00;100618.65;1725925;82;21069;-49
2022/10/27 07:50:40;;;;;;;2.08;1.40;;;;;;;11.56;100.00;100618.08;1723726;82;21463;-48
2022/10/27 07:53:06;;;;;;;2.87;1.20;;;;;;;11.59;100.00;100615.23;1725210;82;21845;-51
2022/10/27 07:55:34;;;;;;;2.70;1.27;;;;;;;11.62;100.00;100618.30;1729280;82;21017;-49
2022/10/27 07:58:10;;;;;;;1.60;1.37;;;;;;;11.62;100.00;100624.57;1725599;82;21012;-49
2022/10/27 08:00:39;;;;;;;2.08;1.32;;;;;;;11.63;100.00;100620.06;1726486;81;21084;-49
2022/10/27 08:03:07;;;;;;;2.47;1.27;;;;;;;11.65;100.00;100623.58;1724150;82;21694;-50
2022/10/27 08:05:35;;;;;;;3.58;1.47;;;;;;;11.68;100.00;100627.02;1725809;82;21844;-50
2022/10/27 08:08:04;;;;;;;1.72;1.00;;;;;;;11.72;100.00;100634.53;1723973;82;21043;-49
2022/10/27 08:10:33;;;;;;;2.65;1.15;;;;;;;11.77;100.00;100637.07;1722914;82;21057;-50
2022/10/27 08:12:59;;;;;;;4.20;1.50;;;;;;;11.81;100.00;100637.37;1723308;82;21037;-48
2022/10/27 08:15:26;;;;;;;1.85;1.52;;;;;;;11.81;100.00;100636.91;1719487;80;21572;-50
2022/10/27 08:17:54;;;;;;;3.25;1.10;;;;;;;11.84;100.00;100638.58;1722577;82;21896;-49
2022/10/27 08:20:21;;;;;;;5.33;1.30;;;;;;;11.86;100.00;100639.41;1720242;82;21087;-49
2022/10/27 08:22:58;;;;;;;3.35;1.37;;;;;;;11.87;100.00;100647.45;1728417;82;21023;-49
2022/10/27 08:25:25;;;;;;;4.67;1.07;;;;;;;11.93;100.00;100647.66;1721410;80;20970;-49
2022/10/27 08:27:51;;;;;;;5.20;1.30;;;;;;;11.94;100.00;100647.61;1723628;82;21071;-49
2022/10/27 08:30:19;;;;;;;3.47;0.93;;;;;;;12.00;100.00;100643.31;1724824;80;21934;-49
2022/10/27 08:32:47;;;;;;;4.58;1.22;;;;;;;12.05;100.00;100645.84;1721742;82;21543;-49
2022/10/27 08:35:15;;;;;;;3.17;0.85;;;;;;;12.09;100.00;100648.34;1724802;82;21056;-49
2022/10/27 08:37:41;;;;;;;1.52;1.00;;;;;;;12.15;100.00;100656.68;1719304;82;21059;-49
2022/10/27 08:40:08;;;;;;;3.55;1.70;;;;;;;12.19;100.00;100654.72;1724995;82;21519;-49
2022/10/27 08:43:03;;;;;;;5.65;1.10;;;;;;;12.23;100.00;100657.25;1723681;82;21796;-49
2022/10/27 08:45:31;;;;;;;;;;;;;;;12.26;100.00;100665.67;1698832;81;21067;-49
2022/10/27 08:47:58;;;;;;;1.55;1.00;;;;;;;12.24;100.00;100654.08;1701217;81;20226;-49
2022/10/27 08:50:27;;;;;;;3.45;1.10;;;;;;;12.21;100.00;100670.39;1703114;81;21100;-49
2022/10/27 08:53:05;;;;;;;2.62;1.07;;;;;;;12.18;100.00;100661.05;1704923;81;21053;-49
2022/10/27 08:55:51;;;;;;;5.83;1.50;;;;;;;12.17;100.00;100666.04;1704771;81;21824;-49
2022/10/27 08:58:37;;;;;;;4.03;0.90;;;;;;;12.13;100.00;100660.78;1702669;82;21137;-49
2022/10/27 09:01:30;;;;;;;1.05;0.90;;;;;;;12.11;100.00;100667.17;1701723;81;21128;-48
2022/10/27 09:04:33;;;;;;;2.52;1.30;;;;;;;12.10;100.00;100664.06;1716847;81;21098;-48
2022/10/27 09:07:11;;;;;;;2.22;0.95;;;;;;;12.14;100.00;100668.41;1706779;81;21057;-48
2022/10/27 09:09:55;;;;;;;5.95;1.35;;;;;;;12.15;100.00;100671.99;1705116;81;21785;-49
2022/10/27 09:13:04;;;;;;;2.60;1.02;;;;;;;12.16;100.00;100671.94;1702961;82;21100;-48
2022/10/27 09:15:46;;;;;;;3.08;1.00;;;;;;;12.18;100.00;100679.95;1707101;81;21124;-48
2022/10/27 09:18:18;;;;;;;3.15;1.10;;;;;;;12.18;100.00;100665.10;1699687;81;21132;-49
2022/10/27 09:20:56;;;;;;;2.17;1.10;;;;;;;12.21;100.00;100671.73;1709039;81;21538;-49
2022/10/27 09:23:31;;;;;;;3.70;1.00;;;;;;;12.23;100.00;100672.56;1699189;81;21881;-49
2022/10/27 09:25:58;;;;;;;4.80;1.70;;;;;;;12.24;100.00;100675.67;1701228;81;21142;-50
2022/10/27 09:28:48;;;;;;;4.10;1.20;;;;;;;12.27;100.00;100673.71;1703826;82;21697;-49
2022/10/27 09:31:37;;;;;;;4.40;1.75;;;;;;;12.31;100.00;100677.17;1701683;81;21442;-49
2022/10/27 09:34:26;;;;;;;4.00;1.12;;;;;;;12.34;100.00;100680.61;1703780;81;21097;-48
2022/10/27 09:36:53;;;;;;;2.15;1.00;;;;;;;12.37;100.00;100678.27;1668559;81;21867;-48
2022/10/27 09:39:20;;;;;;;2.65;1.10;;;;;;;12.40;100.00;100680.86;1704914;81;21076;-49
2022/10/27 09:41:48;;;;;;;2.80;1.17;;;;;;;12.42;100.00;100676.25;1706830;81;21104;-49
2022/10/27 09:44:22;;;;;;;3.75;1.20;;;;;;;12.44;100.00;100678.42;1704810;81;21065;-49
2022/10/27 09:46:53;;;;;;;4.65;1.30;;;;;;;12.47;100.00;100686.41;1707225;82;21629;-49
2022/10/27 09:49:23;;;;;;;1.65;1.32;;;;;;;12.49;100.00;100688.58;1705517;82;22336;-49
2022/10/27 09:52:11;;;;;;;3.62;2.00;;;;;;;12.49;100.00;100689.46;1700920;82;21069;-50
2022/10/27 09:54:41;;;;;;;3.83;1.12;;;;;;;12.51;100.00;100692.95;1685823;82;21085;-49
2022/10/27 09:57:18;;;;;;;4.47;1.47;;;;;;;12.47;100.00;100688.64;1706033;82;21437;-50
2022/10/27 10:00:00;;;;;;;6.30;1.25;;;;;;;12.45;100.00;100682.88;1707112;82;21077;-48
2022/10/27 10:02:31;;;;;;;1.80;1.35;;;;;;;12.46;100.00;100687.34;1707445;82;21940;-48
2022/10/27 10:07:03;;;;;;;2.73;1.30;;;;;;;12.49;100.00;100665.16;1776589;78;26321;-48
2022/10/27 10:09:38;;;;;;;3.08;1.55;;;;;;;12.52;100.00;100684.38;1699708;80;21696;-49
2022/10/27 10:12:22;;;;;;;2.72;1.67;;;;;;;12.50;100.00;100683.59;1674516;81;21934;-50
2022/10/27 10:14:51;;;;;;;3.10;1.20;;;;;;;12.49;100.00;100680.48;1702017;81;21619;-49
2022/10/27 10:17:27;;;;;;;2.72;1.80;;;;;;;12.50;100.00;100684.44;1704107;81;21533;-49
2022/10/27 10:19:55;;;;;;;2.30;2.10;;;;;;;12.55;100.00;100695.53;1705370;81;21530;-50
2022/10/27 10:22:27;;;;;;;3.40;1.92;;;;;;;12.57;100.00;100690.96;1706235;81;21044;-49
2022/10/27 10:24:55;;;;;;;5.85;2.00;;;;;;;12.59;100.00;100688.58;1707335;81;23258;-50
2022/10/27 10:27:29;;;;;;;5.15;2.52;;;;;;;12.61;100.00;100684.00;1688440;82;21582;-50
2022/10/27 10:29:58;;;;;;;4.15;1.80;;;;;;;12.66;100.00;100681.13;1708966;81;21147;-49
2022/10/27 10:32:30;;;;;;;5.75;2.33;;;;;;;12.69;100.00;100683.20;1708690;81;21632;-50
2022/10/27 10:34:59;;;;;;;5.72;2.42;;;;;;;12.70;100.00;100683.62;1709453;81;21458;-50
2022/10/27 10:37:38;;;;;;;6.78;2.30;;;;;;;12.71;100.00;100681.80;1712232;81;21849;-50
2022/10/27 10:40:25;;;;;;;2.83;1.75;;;;;;;12.73;100.00;100683.50;1692982;82;21073;-50
2022/10/27 10:43:05;;;;;;;2.40;1.92;;;;;;;12.76;100.00;100678.45;1691872;83;21086;-50
2022/10/27 10:45:34;;;;;;;2.00;1.85;;;;;;;12.79;100.00;100673.77;1693326;83;21117;-50
2022/10/27 10:48:16;;;;;;;2.25;1.92;;;;;;;12.87;100.00;100680.20;1690938;83;22259;-49
2022/10/27 10:50:46;;;;;;;6.70;2.60;;;;;;;12.91;100.00;100683.66;1708061;81;21812;-49
2022/10/27 10:53:26;;;;;;;2.83;2.10;;;;;;;12.91;100.00;100679.14;1689644;82;21449;-50
2022/10/27 10:55:54;;;;;;;5.00;1.80;;;;;;;12.92;100.00;100684.07;1693450;83;21067;-50
2022/10/27 10:58:21;;;;;;;3.60;1.40;;;;;;;12.90;100.00;100681.42;1680867;82;21077;-49
2022/10/27 11:00:55;;;;;;;3.37;2.25;;;;;;;12.91;100.00;100678.25;1674476;83;21086;-48
2022/10/27 11:03:23;;;;;;;3.15;1.60;;;;;;;12.92;100.00;100675.97;1678746;83;21862;-48
2022/10/27 11:05:59;;;;;;;5.47;1.75;;;;;;;12.92;100.00;100675.49;1666427;83;21050;-48
2022/10/27 11:08:36;;;;;;;3.87;1.20;;;;;;;12.94;100.00;100678.10;1675568;83;21030;-49
2022/10/27 11:11:05;;;;;;;1.37;1.10;;;;;;;12.98;100.00;100679.74;1681001;83;21246;-49
2022/10/27 11:13:46;;;;;;;2.42;1.25;;;;;;;13.07;100.00;100680.70;1672635;83;21086;-49
2022/10/27 11:16:13;;;;;;;2.27;1.65;;;;;;;13.13;100.00;100673.22;1687099;82;22923;-49
2022/10/27 11:18:50;;;;;;;5.47;1.20;;;;;;;13.20;100.00;100673.34;1683563;82;21056;-50
2022/10/27 11:21:41;;;;;;;1.72;1.10;;;;;;;13.26;100.00;100669.52;1692807;81;20963;-50
2022/10/27 11:24:28;;;;;;;1.80;1.50;;;;;;;13.32;100.00;100670.58;1718077;80;21089;-50
2022/10/27 11:27:13;;;;;;;4.60;1.10;;;;;;;13.37;100.00;100667.19;1720195;80;21113;-50
2022/10/27 11:29:57;;;;;;;1.65;1.02;;;;;;;13.44;100.00;100663.25;1721620;80;21911;-50
2022/10/27 11:32:35;;;;;;;5.85;1.22;;;;;;;13.53;100.00;100675.48;1670600;82;21037;-50
2022/10/27 11:35:34;;;;;;;1.85;0.88;;;;;;;13.59;100.00;100688.27;1720255;80;20999;-50
2022/10/27 11:38:21;;;;;;;3.10;0.70;;;;;;;13.61;100.00;100686.34;1722150;80;21065;-50
2022/10/27 11:41:00;;;;;;;2.08;0.80;;;;;;;13.61;100.00;100683.64;1700641;80;21127;-50